sensor_id;sensor_type;location;lat;lon;timestamp;pressure;altitude;pressure_sealevel;temperature;humidity
62895;BME280;49204;44.916;37.998;2022-07-23T00:00:59;100784.38;;;19.31;83.77
62895;BME280;49204;44.916;37.998;2022-07-23T00:03:29;100789.73;;;19.31;83.55
62895;BME280;49204;44.916;37.998;2022-07-23T00:05:57;100787.41;;;19.32;83.40
62895;BME280;49204;44.916;37.998;2022-07-23T00:08:26;100787.90;;;19.32;83.50
62895;BME280;49204;44.916;37.998;2022-07-23T00:10:54;100785.96;;;19.34;83.63
62895;BME280;49204;44.916;37.998;2022-07-23T00:13:23;100789.36;;;19.36;83.83
62895;BME280;49204;44.916;37.998;2022-07-23T00:15:51;100791.43;;;19.38;83.86
62895;BME280;49204;44.916;37.998;2022-07-23T00:18:20;100797.89;;;19.41;83.91
62895;BME280;49204;44.916;37.998;2022-07-23T00:20:49;100793.39;;;19.41;83.85
62895;BME280;49204;44.916;37.998;2022-07-23T00:23:19;100792.55;;;19.41;83.78
62895;BME280;49204;44.916;37.998;2022-07-23T00:25:48;100786.83;;;19.40;83.80
62895;BME280;49204;44.916;37.998;2022-07-23T00:28:16;100789.14;;;19.39;83.90
62895;BME280;49204;44.916;37.998;2022-07-23T00:30:46;100790.09;;;19.38;83.96
62895;BME280;49204;44.916;37.998;2022-07-23T00:33:15;100798.10;;;19.38;84.03
62895;BME280;49204;44.916;37.998;2022-07-23T00:35:44;100802.11;;;19.38;84.05
62895;BME280;49204;44.916;37.998;2022-07-23T00:38:13;100798.00;;;19.39;83.80
62895;BME280;49204;44.916;37.998;2022-07-23T00:40:42;100798.95;;;19.38;83.89
62895;BME280;49204;44.916;37.998;2022-07-23T00:43:11;100794.10;;;19.38;84.00
62895;BME280;49204;44.916;37.998;2022-07-23T00:45:39;100793.97;;;19.34;83.99
62895;BME280;49204;44.916;37.998;2022-07-23T00:48:08;100790.92;;;19.33;83.96
62895;BME280;49204;44.916;37.998;2022-07-23T00:50:37;100790.92;;;19.33;84.17
62895;BME280;49204;44.916;37.998;2022-07-23T00:53:05;100785.23;;;19.32;84.00
62895;BME280;49204;44.916;37.998;2022-07-23T00:55:36;100784.84;;;19.31;83.92
62895;BME280;49204;44.916;37.998;2022-07-23T00:58:05;100788.12;;;19.28;84.09
62895;BME280;49204;44.916;37.998;2022-07-23T01:00:34;100790.05;;;19.26;84.18
62895;BME280;49204;44.916;37.998;2022-07-23T01:03:02;100783.38;;;19.26;84.18
62895;BME280;49204;44.916;37.998;2022-07-23T01:05:31;100786.44;;;19.27;84.12
62895;BME280;49204;44.916;37.998;2022-07-23T01:08:00;100785.66;;;19.25;84.05
62895;BME280;49204;44.916;37.998;2022-07-23T01:10:29;100783.00;;;19.25;84.13
62895;BME280;49204;44.916;37.998;2022-07-23T01:13:03;100780.93;;;19.23;84.24
62895;BME280;49204;44.916;37.998;2022-07-23T01:15:34;100782.41;;;19.22;84.48
62895;BME280;49204;44.916;37.998;2022-07-23T01:18:05;100780.58;;;19.22;84.50
62895;BME280;49204;44.916;37.998;2022-07-23T01:20:36;100782.27;;;19.23;84.42
62895;BME280;49204;44.916;37.998;2022-07-23T01:23:05;100791.00;;;19.25;84.32
62895;BME280;49204;44.916;37.998;2022-07-23T01:25:34;100789.32;;;19.24;84.21
62895;BME280;49204;44.916;37.998;2022-07-23T01:28:04;100799.27;;;19.22;84.19
62895;BME280;49204;44.916;37.998;2022-07-23T01:30:33;100801.91;;;19.17;83.78
62895;BME280;49204;44.916;37.998;2022-07-23T01:33:03;100793.88;;;19.11;83.82
62895;BME280;49204;44.916;37.998;2022-07-23T01:35:32;100797.36;;;19.06;84.30
62895;BME280;49204;44.916;37.998;2022-07-23T01:38:02;100788.73;;;19.02;84.88
62895;BME280;49204;44.916;37.998;2022-07-23T01:40:31;100781.43;;;18.99;85.08
62895;BME280;49204;44.916;37.998;2022-07-23T01:43:00;100782.03;;;18.97;85.21
62895;BME280;49204;44.916;37.998;2022-07-23T01:45:31;100781.64;;;18.96;85.30
62895;BME280;49204;44.916;37.998;2022-07-23T01:48:00;100777.51;;;18.92;85.30
62895;BME280;49204;44.916;37.998;2022-07-23T01:50:29;100778.21;;;18.88;85.28
62895;BME280;49204;44.916;37.998;2022-07-23T01:53:12;100777.58;;;18.84;85.63
62895;BME280;49204;44.916;37.998;2022-07-23T01:55:41;100781.83;;;18.81;85.83
62895;BME280;49204;44.916;37.998;2022-07-23T01:58:11;100777.52;;;18.79;86.12
62895;BME280;49204;44.916;37.998;2022-07-23T02:00:40;100780.68;;;18.78;86.19
62895;BME280;49204;44.916;37.998;2022-07-23T02:03:08;100782.23;;;18.75;86.21
62895;BME280;49204;44.916;37.998;2022-07-23T02:05:37;100784.16;;;18.73;86.14
62895;BME280;49204;44.916;37.998;2022-07-23T02:08:06;100789.35;;;18.69;86.21
62895;BME280;49204;44.916;37.998;2022-07-23T02:10:36;100793.20;;;18.65;86.20
62895;BME280;49204;44.916;37.998;2022-07-23T02:13:06;100794.37;;;18.61;86.20
62895;BME280;49204;44.916;37.998;2022-07-23T02:15:34;100798.50;;;18.59;86.08
62895;BME280;49204;44.916;37.998;2022-07-23T02:18:04;100796.16;;;18.55;86.08
62895;BME280;49204;44.916;37.998;2022-07-23T02:20:32;100794.67;;;18.50;86.08
62895;BME280;49204;44.916;37.998;2022-07-23T02:23:01;100794.39;;;18.48;86.41
62895;BME280;49204;44.916;37.998;2022-07-23T02:25:31;100795.27;;;18.48;86.54
62895;BME280;49204;44.916;37.998;2022-07-23T02:28:01;100792.60;;;18.48;86.46
62895;BME280;49204;44.916;37.998;2022-07-23T02:30:30;100789.34;;;18.50;86.57
62895;BME280;49204;44.916;37.998;2022-07-23T02:33:00;100792.53;;;18.56;86.70
62895;BME280;49204;44.916;37.998;2022-07-23T02:35:29;100793.56;;;18.66;86.79
62895;BME280;49204;44.916;37.998;2022-07-23T02:38:00;100799.45;;;18.77;86.69
62895;BME280;49204;44.916;37.998;2022-07-23T02:40:30;100795.66;;;18.86;86.54
62895;BME280;49204;44.916;37.998;2022-07-23T02:42:59;100797.44;;;18.99;86.29
62895;BME280;49204;44.916;37.998;2022-07-23T02:45:28;100797.60;;;19.08;86.03
62895;BME280;49204;44.916;37.998;2022-07-23T02:47:57;100796.68;;;19.15;85.60
62895;BME280;49204;44.916;37.998;2022-07-23T02:50:26;100801.69;;;19.25;85.41
62895;BME280;49204;44.916;37.998;2022-07-23T02:52:56;100800.64;;;19.34;85.16
62895;BME280;49204;44.916;37.998;2022-07-23T02:55:25;100801.17;;;19.44;84.77
62895;BME280;49204;44.916;37.998;2022-07-23T02:57:54;100800.37;;;19.55;84.14
62895;BME280;49204;44.916;37.998;2022-07-23T03:00:23;100792.99;;;19.64;83.44
62895;BME280;49204;44.916;37.998;2022-07-23T03:02:52;100795.56;;;19.72;82.86
62895;BME280;49204;44.916;37.998;2022-07-23T03:05:20;100798.03;;;19.86;82.15
62895;BME280;49204;44.916;37.998;2022-07-23T03:07:49;100800.45;;;19.78;80.92
62895;BME280;49204;44.916;37.998;2022-07-23T03:10:18;100802.34;;;19.64;80.57
62895;BME280;49204;44.916;37.998;2022-07-23T03:12:47;100798.43;;;19.57;80.60
62895;BME280;49204;44.916;37.998;2022-07-23T03:15:15;100803.99;;;19.54;80.64
62895;BME280;49204;44.916;37.998;2022-07-23T03:17:44;100796.62;;;19.63;80.86
62895;BME280;49204;44.916;37.998;2022-07-23T03:20:13;100802.40;;;19.76;80.92
62895;BME280;49204;44.916;37.998;2022-07-23T03:22:42;100801.02;;;19.70;80.62
62895;BME280;49204;44.916;37.998;2022-07-23T03:25:10;100798.90;;;19.81;80.89
62895;BME280;49204;44.916;37.998;2022-07-23T03:27:40;100805.11;;;19.98;81.04
62895;BME280;49204;44.916;37.998;2022-07-23T03:30:10;100802.71;;;20.12;81.09
62895;BME280;49204;44.916;37.998;2022-07-23T03:32:39;100806.72;;;20.12;80.50
62895;BME280;49204;44.916;37.998;2022-07-23T03:35:08;100805.84;;;20.06;80.00
62895;BME280;49204;44.916;37.998;2022-07-23T03:37:38;100810.83;;;19.99;79.55
62895;BME280;49204;44.916;37.998;2022-07-23T03:40:08;100812.89;;;19.96;79.40
62895;BME280;49204;44.916;37.998;2022-07-23T03:42:37;100821.75;;;19.96;79.47
62895;BME280;49204;44.916;37.998;2022-07-23T03:45:07;100816.39;;;19.91;79.27
62895;BME280;49204;44.916;37.998;2022-07-23T03:47:36;100809.08;;;19.76;79.30
62895;BME280;49204;44.916;37.998;2022-07-23T03:50:07;100809.25;;;19.67;79.48
62895;BME280;49204;44.916;37.998;2022-07-23T03:52:35;100809.08;;;19.76;79.66
62895;BME280;49204;44.916;37.998;2022-07-23T03:55:05;100811.28;;;19.93;79.94
62895;BME280;49204;44.916;37.998;2022-07-23T03:57:34;100810.84;;;20.05;79.84
62895;BME280;49204;44.916;37.998;2022-07-23T04:00:04;100808.67;;;20.38;80.11
62895;BME280;49204;44.916;37.998;2022-07-23T04:02:36;100805.75;;;20.53;79.54
62895;BME280;49204;44.916;37.998;2022-07-23T04:05:06;100810.11;;;20.76;79.20
62895;BME280;49204;44.916;37.998;2022-07-23T04:07:35;100810.57;;;20.93;78.85
62895;BME280;49204;44.916;37.998;2022-07-23T04:10:05;100810.85;;;21.22;78.04
62895;BME280;49204;44.916;37.998;2022-07-23T04:12:33;100799.70;;;21.49;77.15
62895;BME280;49204;44.916;37.998;2022-07-23T04:15:04;100801.56;;;21.85;76.87
62895;BME280;49204;44.916;37.998;2022-07-23T04:17:32;100801.69;;;22.05;75.01
62895;BME280;49204;44.916;37.998;2022-07-23T04:20:02;100803.37;;;22.27;74.21
62895;BME280;49204;44.916;37.998;2022-07-23T04:22:33;100799.94;;;22.55;72.54
62895;BME280;49204;44.916;37.998;2022-07-23T04:25:01;100799.94;;;22.71;71.35
62895;BME280;49204;44.916;37.998;2022-07-23T04:27:30;100798.56;;;22.96;70.21
62895;BME280;49204;44.916;37.998;2022-07-23T04:30:00;100792.78;;;23.26;70.12
62895;BME280;49204;44.916;37.998;2022-07-23T04:32:29;100791.47;;;23.69;69.54
62895;BME280;49204;44.916;37.998;2022-07-23T04:34:58;100787.69;;;23.95;68.67
62895;BME280;49204;44.916;37.998;2022-07-23T04:37:27;100796.81;;;24.36;68.55
62895;BME280;49204;44.916;37.998;2022-07-23T04:39:56;100788.75;;;24.91;68.51
62895;BME280;49204;44.916;37.998;2022-07-23T04:42:25;100791.38;;;25.19;65.99
62895;BME280;49204;44.916;37.998;2022-07-23T04:44:53;100792.19;;;25.29;63.08
62895;BME280;49204;44.916;37.998;2022-07-23T04:47:22;100792.52;;;25.48;63.23
62895;BME280;49204;44.916;37.998;2022-07-23T04:49:52;100786.31;;;25.74;63.00
62895;BME280;49204;44.916;37.998;2022-07-23T04:52:21;100797.38;;;26.11;62.90
62895;BME280;49204;44.916;37.998;2022-07-23T04:54:50;100789.22;;;26.33;61.87
62895;BME280;49204;44.916;37.998;2022-07-23T04:57:19;100794.43;;;26.65;61.37
62895;BME280;49204;44.916;37.998;2022-07-23T04:59:47;100805.66;;;26.94;60.53
62895;BME280;49204;44.916;37.998;2022-07-23T05:02:16;100812.87;;;27.45;60.09
62895;BME280;49204;44.916;37.998;2022-07-23T05:04:45;100808.13;;;27.63;59.15
62895;BME280;49204;44.916;37.998;2022-07-23T05:07:13;100809.48;;;27.26;58.76
62895;BME280;49204;44.916;37.998;2022-07-23T05:09:42;100812.72;;;26.83;57.96
62895;BME280;49204;44.916;37.998;2022-07-23T05:12:10;100813.41;;;26.12;57.98
62895;BME280;49204;44.916;37.998;2022-07-23T05:14:41;100812.89;;;25.91;58.57
62895;BME280;49204;44.916;37.998;2022-07-23T05:17:09;100806.62;;;26.38;58.17
62895;BME280;49204;44.916;37.998;2022-07-23T05:19:38;100814.07;;;26.83;56.64
62895;BME280;49204;44.916;37.998;2022-07-23T05:22:06;100799.80;;;27.15;56.42
62895;BME280;49204;44.916;37.998;2022-07-23T05:24:35;100803.39;;;27.53;56.04
62895;BME280;49204;44.916;37.998;2022-07-23T05:27:05;100801.50;;;27.86;54.41
62895;BME280;49204;44.916;37.998;2022-07-23T05:29:34;100806.19;;;28.21;54.59
62895;BME280;49204;44.916;37.998;2022-07-23T05:32:03;100807.46;;;28.54;54.50
62895;BME280;49204;44.916;37.998;2022-07-23T05:34:34;100807.05;;;28.18;53.88
62895;BME280;49204;44.916;37.998;2022-07-23T05:37:02;100800.02;;;27.67;51.23
62895;BME280;49204;44.916;37.998;2022-07-23T05:39:31;100809.48;;;27.51;51.75
62895;BME280;49204;44.916;37.998;2022-07-23T05:42:00;100809.42;;;27.06;52.65
62895;BME280;49204;44.916;37.998;2022-07-23T05:44:29;100798.47;;;26.61;53.35
62895;BME280;49204;44.916;37.998;2022-07-23T05:46:57;100812.05;;;26.12;53.70
62895;BME280;49204;44.916;37.998;2022-07-23T05:49:26;100816.11;;;25.68;54.26
62895;BME280;49204;44.916;37.998;2022-07-23T05:52:06;100815.10;;;25.29;54.87
62895;BME280;49204;44.916;37.998;2022-07-23T05:54:37;100812.11;;;25.04;55.60
62895;BME280;49204;44.916;37.998;2022-07-23T05:57:06;100817.78;;;25.69;55.94
62895;BME280;49204;44.916;37.998;2022-07-23T05:59:34;100812.66;;;26.28;55.89
62895;BME280;49204;44.916;37.998;2022-07-23T06:02:03;100807.23;;;27.22;55.40
62895;BME280;49204;44.916;37.998;2022-07-23T06:04:32;100806.08;;;28.02;53.78
62895;BME280;49204;44.916;37.998;2022-07-23T06:07:02;100799.16;;;28.52;51.90
62895;BME280;49204;44.916;37.998;2022-07-23T06:09:31;100801.64;;;28.97;51.44
62895;BME280;49204;44.916;37.998;2022-07-23T06:12:00;100808.30;;;28.55;50.10
62895;BME280;49204;44.916;37.998;2022-07-23T06:14:29;100799.69;;;28.55;49.70
62895;BME280;49204;44.916;37.998;2022-07-23T06:16:59;100792.77;;;28.36;49.59
62895;BME280;49204;44.916;37.998;2022-07-23T06:19:28;100791.20;;;27.73;49.87
62895;BME280;49204;44.916;37.998;2022-07-23T06:21:57;100799.95;;;27.22;49.35
62895;BME280;49204;44.916;37.998;2022-07-23T06:24:27;100801.52;;;27.33;50.22
62895;BME280;49204;44.916;37.998;2022-07-23T06:26:56;100791.51;;;28.11;50.28
62895;BME280;49204;44.916;37.998;2022-07-23T06:29:25;100786.20;;;28.74;48.92
62895;BME280;49204;44.916;37.998;2022-07-23T06:31:54;100792.63;;;29.32;47.34
62895;BME280;49204;44.916;37.998;2022-07-23T06:34:22;100784.56;;;29.61;46.45
62895;BME280;49204;44.916;37.998;2022-07-23T06:36:51;100780.01;;;29.81;44.28
62895;BME280;49204;44.916;37.998;2022-07-23T06:39:19;100780.48;;;29.85;44.11
62895;BME280;49204;44.916;37.998;2022-07-23T06:41:48;100783.70;;;29.99;43.38
62895;BME280;49204;44.916;37.998;2022-07-23T06:44:17;100789.98;;;29.61;43.78
62895;BME280;49204;44.916;37.998;2022-07-23T06:46:48;100785.45;;;29.39;44.03
62895;BME280;49204;44.916;37.998;2022-07-23T06:49:16;100789.98;;;29.61;44.39
62895;BME280;49204;44.916;37.998;2022-07-23T06:51:45;100791.92;;;29.76;44.98
62895;BME280;49204;44.916;37.998;2022-07-23T06:54:14;100787.17;;;30.08;44.57
62895;BME280;49204;44.916;37.998;2022-07-23T06:56:42;100782.34;;;29.99;43.76
62895;BME280;49204;44.916;37.998;2022-07-23T06:59:11;100805.56;;;29.25;44.43
62895;BME280;49204;44.916;37.998;2022-07-23T07:01:40;100807.96;;;29.20;44.98
62895;BME280;49204;44.916;37.998;2022-07-23T07:04:08;100804.39;;;29.85;44.90
62895;BME280;49204;44.916;37.998;2022-07-23T07:06:38;100803.29;;;30.54;44.68
62895;BME280;49204;44.916;37.998;2022-07-23T07:09:07;100805.58;;;30.61;43.72
62895;BME280;49204;44.916;37.998;2022-07-23T07:11:35;100808.84;;;30.12;43.84
62895;BME280;49204;44.916;37.998;2022-07-23T07:14:04;100805.39;;;29.46;44.38
62895;BME280;49204;44.916;37.998;2022-07-23T07:16:34;100813.09;;;29.95;44.55
62895;BME280;49204;44.916;37.998;2022-07-23T07:19:02;100811.59;;;30.56;43.90
62895;BME280;49204;44.916;37.998;2022-07-23T07:21:31;100804.28;;;31.19;43.39
62895;BME280;49204;44.916;37.998;2022-07-23T07:23:59;100820.58;;;31.30;42.75
62895;BME280;49204;44.916;37.998;2022-07-23T07:26:28;100826.83;;;30.72;42.51
62895;BME280;49204;44.916;37.998;2022-07-23T07:28:58;100831.97;;;30.56;42.55
62895;BME280;49204;44.916;37.998;2022-07-23T07:31:26;100828.68;;;31.12;42.23
62895;BME280;49204;44.916;37.998;2022-07-23T07:33:55;100814.90;;;31.57;41.79
62895;BME280;49204;44.916;37.998;2022-07-23T07:36:24;100818.30;;;31.87;40.83
62895;BME280;49204;44.916;37.998;2022-07-23T07:38:53;100813.60;;;32.03;40.22
62895;BME280;49204;44.916;37.998;2022-07-23T07:41:22;100807.70;;;32.34;39.76
62895;BME280;49204;44.916;37.998;2022-07-23T07:43:51;100816.58;;;32.08;39.08
62895;BME280;49204;44.916;37.998;2022-07-23T07:46:21;100812.23;;;32.20;38.86
62895;BME280;49204;44.916;37.998;2022-07-23T07:48:51;100817.34;;;32.37;38.01
62895;BME280;49204;44.916;37.998;2022-07-23T07:51:21;100814.50;;;32.76;37.96
62895;BME280;49204;44.916;37.998;2022-07-23T07:53:49;100817.72;;;32.62;37.45
62895;BME280;49204;44.916;37.998;2022-07-23T07:56:18;100819.83;;;32.49;37.16
62895;BME280;49204;44.916;37.998;2022-07-23T07:58:46;100815.03;;;32.75;36.73
62895;BME280;49204;44.916;37.998;2022-07-23T08:01:15;100823.25;;;32.82;35.27
62895;BME280;49204;44.916;37.998;2022-07-23T08:03:44;100824.11;;;32.89;35.50
62895;BME280;49204;44.916;37.998;2022-07-23T08:06:13;100811.47;;;33.05;34.06
62895;BME280;49204;44.916;37.998;2022-07-23T08:08:42;100811.47;;;33.05;34.06
62895;BME280;49204;44.916;37.998;2022-07-23T08:11:10;100806.08;;;33.52;33.92
62895;BME280;49204;44.916;37.998;2022-07-23T08:13:39;100806.08;;;33.52;33.92
62895;BME280;49204;44.916;37.998;2022-07-23T08:16:08;100823.02;;;33.65;34.13
62895;BME280;49204;44.916;37.998;2022-07-23T08:18:36;100822.27;;;33.80;34.24
62895;BME280;49204;44.916;37.998;2022-07-23T08:21:05;100824.67;;;33.86;34.12
62895;BME280;49204;44.916;37.998;2022-07-23T08:23:34;100824.05;;;33.91;33.82
62895;BME280;49204;44.916;37.998;2022-07-23T08:26:03;100828.23;;;33.93;33.59
62895;BME280;49204;44.916;37.998;2022-07-23T08:28:31;100822.49;;;33.72;33.82
62895;BME280;49204;44.916;37.998;2022-07-23T08:31:00;100827.60;;;33.58;34.08
62895;BME280;49204;44.916;37.998;2022-07-23T08:33:29;100834.12;;;33.97;34.09
62895;BME280;49204;44.916;37.998;2022-07-23T08:35:59;100834.12;;;33.97;34.09
62895;BME280;49204;44.916;37.998;2022-07-23T08:38:27;100841.88;;;34.13;33.89
62895;BME280;49204;44.916;37.998;2022-07-23T08:40:56;100843.03;;;34.15;33.50
62895;BME280;49204;44.916;37.998;2022-07-23T08:43:29;100840.74;;;34.18;33.72
62895;BME280;49204;44.916;37.998;2022-07-23T08:46:00;100835.00;;;33.77;33.47
62895;BME280;49204;44.916;37.998;2022-07-23T08:48:32;100847.89;;;33.66;33.25
62895;BME280;49204;44.916;37.998;2022-07-23T08:51:03;100839.27;;;33.82;32.91
62895;BME280;49204;44.916;37.998;2022-07-23T08:53:33;100833.37;;;33.99;32.62
62895;BME280;49204;44.916;37.998;2022-07-23T08:56:04;100830.64;;;34.06;32.42
62895;BME280;49204;44.916;37.998;2022-07-23T08:58:33;100831.36;;;34.10;32.26
62895;BME280;49204;44.916;37.998;2022-07-23T09:01:02;100831.80;;;33.94;31.88
62895;BME280;49204;44.916;37.998;2022-07-23T09:03:34;100840.03;;;33.67;31.76
62895;BME280;49204;44.916;37.998;2022-07-23T09:06:03;100837.89;;;33.56;32.41
62895;BME280;49204;44.916;37.998;2022-07-23T09:08:40;100830.22;;;33.62;32.48
62895;BME280;49204;44.916;37.998;2022-07-23T09:11:12;100842.95;;;33.85;32.77
62895;BME280;49204;44.916;37.998;2022-07-23T09:13:50;100835.81;;;34.18;32.61
62895;BME280;49204;44.916;37.998;2022-07-23T09:16:28;100833.45;;;34.35;32.21
62895;BME280;49204;44.916;37.998;2022-07-23T09:19:02;100824.03;;;34.53;32.04
62895;BME280;49204;44.916;37.998;2022-07-23T09:21:36;100826.08;;;34.65;31.72
62895;BME280;49204;44.916;37.998;2022-07-23T09:24:10;100841.41;;;34.79;31.65
62895;BME280;49204;44.916;37.998;2022-07-23T09:26:44;100829.44;;;34.67;31.10
62895;BME280;49204;44.916;37.998;2022-07-23T09:29:16;100829.44;;;34.67;31.10
62895;BME280;49204;44.916;37.998;2022-07-23T09:31:54;100833.05;;;34.60;31.58
62895;BME280;49204;44.916;37.998;2022-07-23T09:34:34;100834.73;;;34.84;31.66
62895;BME280;49204;44.916;37.998;2022-07-23T09:37:12;100841.72;;;34.44;31.74
62895;BME280;49204;44.916;37.998;2022-07-23T09:39:43;100833.67;;;34.13;31.86
62895;BME280;49204;44.916;37.998;2022-07-23T09:42:17;100843.27;;;34.20;32.23
62895;BME280;49204;44.916;37.998;2022-07-23T09:44:48;100836.94;;;34.19;32.33
62895;BME280;49204;44.916;37.998;2022-07-23T09:47:17;100836.31;;;34.19;32.33
62895;BME280;49204;44.916;37.998;2022-07-23T09:50:04;100836.31;;;34.04;32.42
62895;BME280;49204;44.916;37.998;2022-07-23T09:52:47;100836.44;;;34.00;32.58
62895;BME280;49204;44.916;37.998;2022-07-23T09:55:16;100831.52;;;33.73;32.33
62895;BME280;49204;44.916;37.998;2022-07-23T09:57:47;100831.52;;;33.73;32.33
62895;BME280;49204;44.916;37.998;2022-07-23T10:00:20;100838.77;;;33.76;32.69
62895;BME280;49204;44.916;37.998;2022-07-23T10:02:50;100842.70;;;32.96;33.10
62895;BME280;49204;44.916;37.998;2022-07-23T10:05:28;100843.87;;;32.39;33.72
62895;BME280;49204;44.916;37.998;2022-07-23T10:08:18;100848.45;;;32.49;34.30
62895;BME280;49204;44.916;37.998;2022-07-23T10:11:05;100841.56;;;32.77;34.24
62895;BME280;49204;44.916;37.998;2022-07-23T10:13:43;100835.72;;;32.21;34.20
62895;BME280;49204;44.916;37.998;2022-07-23T10:16:24;100835.19;;;32.04;34.36
62895;BME280;49204;44.916;37.998;2022-07-23T10:18:53;100835.98;;;32.33;34.47
62895;BME280;49204;44.916;37.998;2022-07-23T10:27:53;100839.23;;;32.67;34.29
62895;BME280;49204;44.916;37.998;2022-07-23T10:35:50;100846.72;;;32.83;34.07
62895;BME280;49204;44.916;37.998;2022-07-23T10:41:04;100839.96;;;32.30;34.10
62895;BME280;49204;44.916;37.998;2022-07-23T10:43:33;100840.25;;;31.97;34.54
62895;BME280;49204;44.916;37.998;2022-07-23T10:46:21;100841.64;;;31.75;34.94
62895;BME280;49204;44.916;37.998;2022-07-23T10:49:24;100849.94;;;31.67;34.98
62895;BME280;49204;44.916;37.998;2022-07-23T10:54:43;100855.05;;;30.71;35.84
62895;BME280;49204;44.916;37.998;2022-07-23T10:57:13;100848.33;;;30.18;36.46
62895;BME280;49204;44.916;37.998;2022-07-23T11:02:41;100860.37;;;29.36;37.42
62895;BME280;49204;44.916;37.998;2022-07-23T11:05:12;100862.22;;;29.08;37.63
62895;BME280;49204;44.916;37.998;2022-07-23T11:10:35;100861.79;;;29.55;37.48
62895;BME280;49204;44.916;37.998;2022-07-23T11:13:27;100857.50;;;29.60;37.39
62895;BME280;49204;44.916;37.998;2022-07-23T11:16:04;100856.90;;;29.69;37.00
62895;BME280;49204;44.916;37.998;2022-07-23T11:26:50;100856.84;;;29.35;36.99
62895;BME280;49204;44.916;37.998;2022-07-23T11:32:05;100865.91;;;29.19;37.54
62895;BME280;49204;44.916;37.998;2022-07-23T11:34:46;100864.27;;;29.06;37.60
62895;BME280;49204;44.916;37.998;2022-07-23T11:37:34;100870.93;;;28.95;37.40
62895;BME280;49204;44.916;37.998;2022-07-23T11:40:12;100872.83;;;28.86;37.54
62895;BME280;49204;44.916;37.998;2022-07-23T11:42:51;100870.00;;;28.80;37.66
62895;BME280;49204;44.916;37.998;2022-07-23T11:45:10;100870.12;;;28.86;37.91
62895;BME280;49204;44.916;37.998;2022-07-23T11:47:39;100873.17;;;28.87;38.08
62895;BME280;49204;44.916;37.998;2022-07-23T11:50:08;100869.33;;;28.78;38.43
62895;BME280;49204;44.916;37.998;2022-07-23T11:52:37;100865.67;;;28.58;38.79
62895;BME280;49204;44.916;37.998;2022-07-23T11:55:08;100868.90;;;28.45;38.91
62895;BME280;49204;44.916;37.998;2022-07-23T11:57:39;100865.56;;;28.35;38.98
62895;BME280;49204;44.916;37.998;2022-07-23T12:00:11;100870.96;;;28.31;39.21
62895;BME280;49204;44.916;37.998;2022-07-23T12:02:49;100882.49;;;28.33;39.32
62895;BME280;49204;44.916;37.998;2022-07-23T12:05:16;100883.83;;;28.37;39.39
62895;BME280;49204;44.916;37.998;2022-07-23T12:07:46;100883.48;;;28.36;39.58
62895;BME280;49204;44.916;37.998;2022-07-23T12:10:39;100881.80;;;28.35;39.99
62895;BME280;49204;44.916;37.998;2022-07-23T12:13:11;100891.81;;;28.22;40.17
62895;BME280;49204;44.916;37.998;2022-07-23T12:15:46;100887.57;;;28.20;40.18
62895;BME280;49204;44.916;37.998;2022-07-23T12:18:18;100895.39;;;28.15;40.28
62895;BME280;49204;44.916;37.998;2022-07-23T12:20:49;100895.73;;;28.07;40.14
62895;BME280;49204;44.916;37.998;2022-07-23T12:23:19;100895.88;;;27.98;40.10
62895;BME280;49204;44.916;37.998;2022-07-23T12:25:50;100891.33;;;27.90;40.20
62895;BME280;49204;44.916;37.998;2022-07-23T12:28:21;100891.80;;;27.81;40.42
62895;BME280;49204;44.916;37.998;2022-07-23T12:30:54;100892.66;;;27.86;40.47
62895;BME280;49204;44.916;37.998;2022-07-23T12:33:31;100887.42;;;27.76;40.52
62895;BME280;49204;44.916;37.998;2022-07-23T12:36:05;100891.63;;;27.66;40.72
62895;BME280;49204;44.916;37.998;2022-07-23T12:38:43;100887.57;;;27.62;40.72
62895;BME280;49204;44.916;37.998;2022-07-23T12:41:12;100888.58;;;27.57;40.88
62895;BME280;49204;44.916;37.998;2022-07-23T12:43:43;100894.31;;;27.50;40.85
62895;BME280;49204;44.916;37.998;2022-07-23T12:46:19;100894.98;;;27.44;40.78
62895;BME280;49204;44.916;37.998;2022-07-23T12:48:52;100892.28;;;27.40;40.82
62895;BME280;49204;44.916;37.998;2022-07-23T12:51:31;100904.77;;;27.37;40.81
62895;BME280;49204;44.916;37.998;2022-07-23T12:54:05;100897.97;;;27.24;40.91
62895;BME280;49204;44.916;37.998;2022-07-23T12:56:35;100899.29;;;27.20;40.82
62895;BME280;49204;44.916;37.998;2022-07-23T12:59:07;100901.66;;;27.15;41.02
62895;BME280;49204;44.916;37.998;2022-07-23T13:01:40;100908.23;;;27.16;41.08
62895;BME280;49204;44.916;37.998;2022-07-23T13:04:21;100905.38;;;27.22;41.07
62895;BME280;49204;44.916;37.998;2022-07-23T13:06:54;100902.87;;;27.25;40.97
62895;BME280;49204;44.916;37.998;2022-07-23T13:09:27;100898.30;;;27.21;41.05
62895;BME280;49204;44.916;37.998;2022-07-23T13:11:56;100903.02;;;27.19;41.11
62895;BME280;49204;44.916;37.998;2022-07-23T13:14:27;100903.86;;;27.20;41.08
62895;BME280;49204;44.916;37.998;2022-07-23T13:16:56;100907.91;;;27.20;41.05
62895;BME280;49204;44.916;37.998;2022-07-23T13:19:25;100902.19;;;27.23;41.19
62895;BME280;49204;44.916;37.998;2022-07-23T13:21:54;100896.95;;;27.25;41.24
62895;BME280;49204;44.916;37.998;2022-07-23T13:24:23;100907.08;;;27.23;41.22
62895;BME280;49204;44.916;37.998;2022-07-23T13:26:52;100907.40;;;27.20;41.23
62895;BME280;49204;44.916;37.998;2022-07-23T13:29:20;100917.17;;;27.13;41.33
62895;BME280;49204;44.916;37.998;2022-07-23T13:31:49;100920.53;;;27.03;41.44